Time;durP1;ratioP1;P1;durP2;ratioP2;P2;SDS_P1;SDS_P2;PMS_P1;PMS_P2;Temp;Humidity;BMP_temperature;BMP_pressure;BME280_temperature;BME280_humidity;BME280_pressure;Samples;Min_cycle;Max_cycle;Signal;HPM_P1;HPM_P2
2022/06/12 00:01:58;;;;;;;3.78;2.42;;;;;;;14.17;79.84;102208.50;4954735;29;20035;-66
2022/06/12 00:04:24;;;;;;;9.02;2.92;;;;;;;14.17;79.51;102195.94;4954542;29;20039;-65
2022/06/12 00:06:50;;;;;;;7.03;2.40;;;;;;;14.16;79.58;102196.13;4954464;29;20031;-66
2022/06/12 00:09:16;;;;;;;9.68;3.03;;;;;;;14.18;80.06;102194.91;4954391;29;20050;-66
2022/06/12 00:11:44;;;;;;;7.80;2.88;;;;;;;14.15;81.56;102189.94;4954395;29;20078;-65
2022/06/12 00:14:11;;;;;;;7.00;2.47;;;;;;;14.07;81.92;102199.91;4954436;29;20031;-66
2022/06/12 00:16:40;;;;;;;6.97;2.42;;;;;;;14.00;82.33;102197.97;4954310;29;20043;-65
2022/06/12 00:19:06;;;;;;;5.13;2.20;;;;;;;13.91;82.94;102193.75;4954313;29;20041;-66
2022/06/12 00:21:32;;;;;;;3.83;2.45;;;;;;;13.88;82.05;102196.78;4954192;29;20116;-66
2022/06/12 00:24:06;;;;;;;7.85;3.40;;;;;;;13.87;82.97;102194.28;4954482;29;20446;-65
2022/06/12 00:26:31;;;;;;;7.28;2.65;;;;;;;13.80;82.83;102195.03;4954384;28;20038;-66
2022/06/12 00:29:05;;;;;;;10.20;2.80;;;;;;;13.75;83.82;102193.91;4954053;29;20047;-66
2022/06/12 00:31:31;;;;;;;6.30;2.42;;;;;;;13.68;83.74;102196.50;4952818;29;20067;-66
2022/06/12 00:33:57;;;;;;;6.53;3.30;;;;;;;13.60;83.16;102191.25;4954052;29;20118;-66
2022/06/12 00:36:23;;;;;;;7.70;2.92;;;;;;;13.58;83.23;102193.28;4954046;29;20487;-66
2022/06/12 00:38:48;;;;;;;6.80;2.80;;;;;;;13.58;82.84;102191.41;4953986;29;20035;-66
2022/06/12 00:41:14;;;;;;;8.25;3.22;;;;;;;13.58;82.91;102185.22;4953918;29;20043;-66
2022/06/12 00:43:40;;;;;;;8.32;3.10;;;;;;;13.61;82.54;102194.75;4953892;29;20035;-66
2022/06/12 00:46:06;;;;;;;10.35;3.38;;;;;;;13.61;83.06;102190.22;4953823;29;20023;-66
2022/06/12 00:48:35;;;;;;;6.75;3.65;;;;;;;13.62;83.06;102191.03;4953666;29;20027;-65
2022/06/12 00:51:07;;;;;;;9.57;3.03;;;;;;;13.61;82.70;102194.75;4951732;28;20039;-66
2022/06/12 00:53:46;;;;;;;10.18;4.22;;;;;;;13.61;83.01;102197.44;4953628;28;20081;-66
2022/06/12 00:56:18;;;;;;;11.43;3.38;;;;;;;13.61;82.01;102202.78;4953273;29;20074;-65
2022/06/12 00:58:48;;;;;;;8.35;2.70;;;;;;;13.57;83.15;102194.25;4953484;28;20101;-66
2022/06/12 01:01:50;;;;;;;8.25;3.88;;;;;;;13.58;83.02;102202.13;4953368;29;20070;-66
2022/06/12 01:07:05;;;;;;;9.60;2.78;;;;;;;13.48;82.25;102195.38;4953565;29;20077;-66
2022/06/12 01:09:36;;;;;;;7.28;3.25;;;;;;;13.47;82.93;102193.72;4951858;28;20506;-66
2022/06/12 01:12:04;;;;;;;10.88;3.45;;;;;;;13.46;83.63;102192.88;4953607;28;20027;-66
2022/06/12 01:14:36;;;;;;;11.57;3.63;;;;;;;13.42;81.79;102188.09;4953249;29;20126;-66
2022/06/12 01:17:04;;;;;;;12.90;3.58;;;;;;;13.37;82.86;102189.44;4952105;29;20122;-66
2022/06/12 01:19:41;;;;;;;10.07;3.45;;;;;;;13.31;81.91;102186.69;4953254;29;20024;-66
2022/06/12 01:22:37;;;;;;;7.47;3.22;;;;;;;13.26;82.50;102189.03;4953511;29;20035;-66
2022/06/12 01:25:21;;;;;;;13.20;3.53;;;;;;;13.25;83.24;102198.06;4953312;29;20023;-66
2022/06/12 01:28:05;;;;;;;8.55;3.47;;;;;;;13.21;82.85;102194.94;4953208;29;20558;-66
2022/06/12 01:30:40;;;;;;;7.40;3.25;;;;;;;13.21;83.95;102191.44;4952672;29;20081;-66
2022/06/12 01:33:53;;;;;;;12.25;2.80;;;;;;;13.21;83.04;102183.38;4952943;29;20031;-66
2022/06/12 01:36:44;;;;;;;7.53;3.50;;;;;;;13.16;83.18;102194.63;4948008;28;20043;-66
2022/06/12 01:39:38;;;;;;;5.97;2.78;;;;;;;13.20;82.62;102198.59;4952731;29;20042;-66
2022/06/12 01:42:03;;;;;;;7.25;3.25;;;;;;;13.16;84.20;102197.31;4944910;29;20418;-66
2022/06/12 01:44:40;;;;;;;7.32;2.83;;;;;;;13.08;84.55;102189.34;4952578;29;20042;-66
2022/06/12 01:47:36;;;;;;;7.03;2.83;;;;;;;12.99;84.05;102187.75;4952568;29;20031;-66
2022/06/12 01:50:20;;;;;;;8.25;3.88;;;;;;;12.90;84.16;102185.13;4952631;28;20562;-66
2022/06/12 01:52:56;;;;;;;9.05;3.40;;;;;;;12.86;84.33;102183.84;4952461;29;20051;-66
2022/06/12 01:55:40;;;;;;;7.30;3.80;;;;;;;12.85;84.83;102174.13;4952344;29;20102;-66
2022/06/12 01:58:22;;;;;;;9.45;3.13;;;;;;;12.82;84.73;102176.34;4952239;29;20038;-66
2022/06/12 02:00:55;;;;;;;7.55;3.05;;;;;;;12.78;84.49;102170.50;4952400;29;20174;-66
2022/06/12 02:03:43;;;;;;;7.40;4.75;;;;;;;12.77;84.34;102173.38;4952269;29;20487;-66
2022/06/12 02:06:43;;;;;;;10.02;3.33;;;;;;;12.82;83.09;102173.66;4952094;29;20038;-66
2022/06/12 02:09:18;;;;;;;7.28;2.78;;;;;;;12.84;82.93;102175.16;4948271;29;20406;-68
2022/06/12 02:14:44;;;;;;;7.90;3.05;;;;;;;12.78;85.29;102173.16;4952533;29;20113;-68
2022/06/12 02:17:16;;;;;;;8.38;3.30;;;;;;;12.75;85.21;102176.19;4952181;29;20034;-68
2022/06/12 02:19:43;;;;;;;6.57;2.70;;;;;;;12.72;84.79;102173.88;4952156;29;20031;-68
2022/06/12 02:22:23;;;;;;;6.70;2.65;;;;;;;12.69;84.68;102180.44;4951832;28;20133;-68
2022/06/12 02:25:13;;;;;;;4.60;3.13;;;;;;;12.61;84.83;102193.03;4952269;29;20551;-68
2022/06/12 02:27:45;;;;;;;9.95;3.65;;;;;;;12.52;86.13;102183.38;4952104;29;20027;-68
2022/06/12 02:30:17;;;;;;;11.80;3.38;;;;;;;12.47;85.99;102184.75;4952011;29;20031;-68
2022/06/12 02:32:48;;;;;;;8.93;3.78;;;;;;;12.46;85.52;102184.94;4951343;29;20108;-69
2022/06/12 02:35:22;;;;;;;11.82;3.90;;;;;;;12.43;85.33;102175.41;4951896;29;20118;-68
2022/06/12 02:37:54;;;;;;;5.68;3.00;;;;;;;12.47;85.40;102181.22;4951779;29;20049;-68
2022/06/12 02:40:37;;;;;;;10.50;3.90;;;;;;;12.49;85.07;102176.53;4951790;29;20115;-68
2022/06/12 02:43:15;;;;;;;12.70;4.03;;;;;;;12.51;84.89;102171.84;4951667;29;20367;-68
2022/06/12 02:45:50;;;;;;;14.07;4.50;;;;;;;12.51;84.95;102174.53;4951761;29;20057;-68
2022/06/12 02:48:16;;;;;;;6.35;3.47;;;;;;;12.53;85.32;102167.16;4951668;29;20062;-68
2022/06/12 02:50:54;;;;;;;13.40;3.95;;;;;;;12.54;84.84;102157.28;4951225;28;20031;-68
2022/06/12 02:53:34;;;;;;;8.85;3.53;;;;;;;12.58;84.56;102164.78;4951578;29;20114;-68
2022/06/12 02:56:17;;;;;;;5.70;3.03;;;;;;;12.54;85.06;102154.59;4951451;29;20133;-68
2022/06/12 02:58:48;;;;;;;12.70;3.47;;;;;;;12.58;84.75;102156.75;4951565;29;20031;-68
2022/06/12 03:01:17;;;;;;;14.88;3.45;;;;;;;12.54;85.03;102149.25;4951146;29;20043;-68
2022/06/12 03:03:47;;;;;;;27.23;5.57;;;;;;;12.61;84.61;102160.94;4951464;29;20035;-68
2022/06/12 03:06:14;;;;;;;12.20;3.53;;;;;;;12.62;84.28;102157.22;4951320;29;20049;-68
2022/06/12 03:08:46;;;;;;;13.70;3.97;;;;;;;12.60;85.28;102157.41;4951032;29;20061;-68
2022/06/12 03:11:19;;;;;;;9.10;3.83;;;;;;;12.61;84.82;102164.44;4950959;29;20904;-68
2022/06/12 03:13:46;;;;;;;9.73;3.60;;;;;;;12.59;84.91;102155.75;4951272;29;20038;-68
2022/06/12 03:16:16;;;;;;;8.07;3.70;;;;;;;12.64;84.89;102166.75;4951275;29;20030;-68
2022/06/12 03:18:49;;;;;;;10.90;3.67;;;;;;;12.65;84.91;102173.78;4951252;29;20505;-68
2022/06/12 03:21:28;;;;;;;10.85;3.60;;;;;;;12.65;84.83;102162.22;4951114;29;20114;-68
2022/06/12 03:24:19;;;;;;;13.27;5.68;;;;;;;12.66;84.50;102178.13;4951188;29;20035;-68
2022/06/12 03:27:03;;;;;;;8.27;4.70;;;;;;;12.67;84.25;102177.09;4951253;28;20023;-68
2022/06/12 03:29:46;;;;;;;10.98;3.50;;;;;;;12.68;84.29;102180.59;4951042;29;20046;-68
2022/06/12 03:32:18;;;;;;;9.30;3.75;;;;;;;12.65;84.46;102168.44;4951289;28;20390;-68
2022/06/12 03:34:46;;;;;;;9.55;3.25;;;;;;;12.68;84.66;102176.09;4955036;29;20039;-68
2022/06/12 03:37:23;;;;;;;13.30;4.80;;;;;;;12.68;84.92;102161.84;4954940;29;20139;-64
2022/06/12 03:39:59;;;;;;;17.13;4.07;;;;;;;12.71;84.63;102178.41;4954978;29;20042;-64
2022/06/12 03:43:09;;;;;;;12.50;3.35;;;;;;;12.75;84.43;102178.06;4954698;29;20030;-64
2022/06/12 03:46:23;;;;;;;11.93;3.75;;;;;;;12.79;84.12;102174.84;4954826;29;20065;-64
2022/06/12 03:48:51;;;;;;;8.80;3.88;;;;;;;12.81;84.04;102180.00;4933190;29;20491;-63
2022/06/12 03:51:22;;;;;;;9.45;4.32;;;;;;;12.82;84.11;102184.38;4952315;28;20090;-64
2022/06/12 03:53:57;;;;;;;11.55;4.10;;;;;;;12.83;84.12;102172.63;4954796;29;20027;-64
2022/06/12 03:59:29;;;;;;;12.85;4.68;;;;;;;12.92;83.80;102172.41;4954806;29;20106;-63
2022/06/12 04:01:56;;;;;;;17.52;4.75;;;;;;;12.95;83.41;102165.84;4954556;29;20038;-63
2022/06/12 04:04:24;;;;;;;6.95;3.85;;;;;;;12.99;83.38;102169.00;4954503;29;20082;-64
2022/06/12 04:06:53;;;;;;;15.45;4.53;;;;;;;13.02;83.34;102182.03;4954612;29;20458;-63
2022/06/12 04:09:26;;;;;;;12.63;3.72;;;;;;;12.99;83.36;102174.34;4953995;29;20113;-64
2022/06/12 04:11:59;;;;;;;10.48;4.35;;;;;;;13.07;83.21;102179.63;4954283;29;20030;-64
2022/06/12 04:14:31;;;;;;;14.55;3.42;;;;;;;13.10;83.16;102180.13;4954335;29;20035;-64
2022/06/12 04:16:59;;;;;;;9.68;3.95;;;;;;;13.11;83.19;102179.09;4954269;29;20087;-63
2022/06/12 04:19:27;;;;;;;10.00;3.78;;;;;;;13.15;82.78;102183.09;4954308;29;20027;-63
2022/06/12 04:22:11;;;;;;;11.18;4.32;;;;;;;13.18;82.90;102181.91;4954373;29;20118;-64
2022/06/12 04:24:46;;;;;;;11.25;4.28;;;;;;;13.20;83.19;102171.81;4953945;29;20043;-63
2022/06/12 04:27:29;;;;;;;10.32;3.70;;;;;;;13.23;83.22;102181.34;4954027;29;20023;-66
2022/06/12 04:29:58;;;;;;;13.52;4.93;;;;;;;13.24;83.12;102183.84;4953896;29;20023;-66
2022/06/12 04:32:27;;;;;;;17.00;5.22;;;;;;;13.25;83.07;102184.69;4954024;29;20695;-66
2022/06/12 04:34:53;;;;;;;12.07;4.07;;;;;;;13.28;83.34;102174.47;4953924;29;20054;-66
2022/06/12 04:37:25;;;;;;;10.77;4.53;;;;;;;13.35;83.35;102186.09;4953977;29;20525;-66
2022/06/12 04:39:50;;;;;;;;;;;;;;;13.43;81.89;102184.38;4954375;29;20455;-66
2022/06/12 04:42:19;;;;;;;11.48;4.75;;;;;;;13.57;82.74;102187.09;4954272;29;19997;-66
2022/06/12 04:44:45;;;;;;;12.90;4.40;;;;;;;13.84;81.14;102192.81;4953459;28;20114;-66
2022/06/12 04:47:17;;;;;;;11.85;5.72;;;;;;;13.95;80.87;102191.50;4953919;29;20473;-66
2022/06/12 04:49:43;;;;;;;11.32;4.10;;;;;;;13.94;80.47;102192.53;4953740;29;20031;-66
2022/06/12 04:52:11;;;;;;;12.98;5.05;;;;;;;13.90;80.68;102194.75;4953555;29;20362;-66
2022/06/12 04:54:39;;;;;;;11.88;4.15;;;;;;;13.87;80.90;102189.75;4953174;29;20059;-66
2022/06/12 04:57:05;;;;;;;12.60;5.40;;;;;;;13.85;81.16;102186.44;4953018;29;20035;-66
2022/06/12 04:59:31;;;;;;;8.88;3.58;;;;;;;13.85;80.47;102202.53;4953231;29;20046;-66
2022/06/12 05:01:57;;;;;;;10.80;4.32;;;;;;;13.85;80.48;102185.59;4953158;29;20405;-66
2022/06/12 05:04:24;;;;;;;10.80;5.00;;;;;;;13.91;80.71;102191.06;4952548;29;20038;-66
2022/06/12 05:06:49;;;;;;;10.00;3.97;;;;;;;14.11;80.92;102179.75;4953148;29;20035;-66
2022/06/12 05:09:16;;;;;;;10.07;5.30;;;;;;;14.22;79.07;102176.56;4952608;29;20382;-66
2022/06/12 05:11:43;;;;;;;17.08;4.78;;;;;;;14.23;79.67;102173.72;4952485;29;20521;-66
2022/06/12 05:14:09;;;;;;;11.05;4.95;;;;;;;14.24;80.14;102180.75;4933926;29;21002;-66
2022/06/12 05:16:40;;;;;;;12.77;5.43;;;;;;;14.25;79.98;102176.19;4934563;29;20028;-66
2022/06/12 05:19:08;;;;;;;8.88;4.68;;;;;;;14.25;80.15;102178.88;4952773;29;20034;-66
2022/06/12 05:21:34;;;;;;;9.90;4.50;;;;;;;14.25;79.92;102178.88;4952679;29;20039;-66
2022/06/12 05:24:00;;;;;;;15.82;6.38;;;;;;;14.27;79.88;102181.38;4952824;29;20076;-66
2022/06/12 05:26:27;;;;;;;10.30;5.63;;;;;;;14.24;80.17;102175.38;4952842;29;20059;-65
2022/06/12 05:28:54;;;;;;;16.63;5.70;;;;;;;14.27;80.96;102182.22;4952677;29;20035;-66
2022/06/12 05:31:20;;;;;;;12.30;5.00;;;;;;;14.26;80.36;102172.50;4952656;29;20521;-66
2022/06/12 05:33:46;;;;;;;14.52;5.35;;;;;;;14.35;80.89;102187.47;4952652;29;20027;-66
2022/06/12 05:36:14;;;;;;;11.80;4.90;;;;;;;14.40;80.62;102189.59;4952421;29;20031;-66
2022/06/12 05:38:42;;;;;;;17.02;6.65;;;;;;;14.62;80.88;102183.28;4952441;29;20505;-66
2022/06/12 05:41:07;;;;;;;12.55;4.40;;;;;;;14.95;79.00;102181.91;4952364;29;20038;-66
2022/06/12 05:43:33;;;;;;;12.68;5.00;;;;;;;15.05;79.23;102187.81;4952227;29;20035;-66
2022/06/12 05:45:58;;;;;;;10.68;4.82;;;;;;;15.02;78.67;102177.44;4952196;29;20023;-66
2022/06/12 05:48:24;;;;;;;13.02;4.30;;;;;;;14.95;79.57;102173.88;4952152;29;20055;-64
2022/06/12 05:50:53;;;;;;;16.23;5.75;;;;;;;15.02;80.00;102185.50;4951723;29;20119;-63
2022/06/12 05:53:20;;;;;;;13.15;5.40;;;;;;;15.05;80.16;102185.94;4952135;29;20411;-63
2022/06/12 05:55:46;;;;;;;10.60;4.18;;;;;;;15.10;80.64;102190.75;4951353;28;20090;-65
2022/06/12 05:58:14;;;;;;;12.48;4.80;;;;;;;15.17;79.96;102198.84;4952157;29;20066;-64
2022/06/12 06:00:39;;;;;;;13.80;5.32;;;;;;;15.47;79.50;102192.25;4952033;29;20530;-65
2022/06/12 06:03:05;;;;;;;14.10;4.78;;;;;;;16.16;76.94;102187.91;4951469;29;20118;-64
2022/06/12 06:05:31;;;;;;;16.80;5.93;;;;;;;16.74;74.87;102193.69;4951410;29;20098;-65
2022/06/12 06:07:56;;;;;;;12.07;4.47;;;;;;;16.81;73.98;102194.53;4951481;29;20038;-64
2022/06/12 06:10:25;;;;;;;14.27;4.72;;;;;;;16.57;74.86;102184.31;4951709;29;20039;-64
2022/06/12 06:12:52;;;;;;;16.48;5.82;;;;;;;16.32;75.50;102197.50;4951374;29;20035;-65
2022/06/12 06:15:18;;;;;;;6.53;4.07;;;;;;;16.11;76.66;102199.31;4951509;29;20575;-64
2022/06/12 06:17:44;;;;;;;10.95;3.92;;;;;;;15.93;77.18;102196.31;4951727;29;20055;-65
2022/06/12 06:20:13;;;;;;;13.43;4.28;;;;;;;15.87;79.13;102200.59;4934493;29;20070;-64
2022/06/12 06:22:39;;;;;;;17.52;5.40;;;;;;;15.86;78.21;102209.72;4951742;29;20046;-64
2022/06/12 06:25:05;;;;;;;13.07;5.13;;;;;;;15.82;78.82;102204.94;4934430;29;20043;-65
2022/06/12 06:27:30;;;;;;;14.57;5.32;;;;;;;15.77;79.81;102211.75;4951744;29;20034;-64
2022/06/12 06:29:56;;;;;;;20.13;4.72;;;;;;;15.75;79.84;102204.91;4951465;29;20043;-64
2022/06/12 06:32:21;;;;;;;12.85;4.65;;;;;;;15.77;79.73;102202.81;4951361;29;20062;-65
2022/06/12 06:34:46;;;;;;;18.55;5.47;;;;;;;15.79;80.40;102203.47;4951597;29;20062;-64
2022/06/12 06:37:12;;;;;;;13.77;5.28;;;;;;;15.79;80.83;102206.16;4951567;29;20118;-64
2022/06/12 06:39:38;;;;;;;19.33;5.60;;;;;;;15.82;80.36;102207.63;4915792;29;20032;-65
2022/06/12 06:42:06;;;;;;;17.20;5.57;;;;;;;15.86;81.14;102216.97;4933264;29;20062;-65
2022/06/12 06:47:16;;;;;;;18.52;6.53;;;;;;;15.98;81.75;102212.66;4951546;29;20046;-65
2022/06/12 06:49:42;;;;;;;17.38;5.45;;;;;;;16.06;81.54;102215.22;4951258;29;20470;-66
2022/06/12 06:52:07;;;;;;;18.30;6.03;;;;;;;16.15;82.33;102219.38;4951447;29;20038;-65
2022/06/12 06:54:33;;;;;;;18.77;6.53;;;;;;;16.22;81.02;102227.50;4951005;29;20558;-65
2022/06/12 06:56:58;;;;;;;14.27;4.78;;;;;;;16.30;80.23;102224.63;4951226;29;20431;-65
2022/06/12 06:59:24;;;;;;;17.10;5.35;;;;;;;16.31;79.96;102220.06;4951191;29;20027;-65
2022/06/12 07:01:49;;;;;;;20.67;5.90;;;;;;;16.46;80.18;102223.44;4951086;29;20066;-67
2022/06/12 07:04:15;;;;;;;17.10;5.72;;;;;;;16.60;78.58;102225.13;4950984;29;20082;-67
2022/06/12 07:06:41;;;;;;;16.15;5.65;;;;;;;16.62;78.24;102217.69;4950467;28;21024;-67
2022/06/12 07:09:07;;;;;;;16.13;5.75;;;;;;;16.67;79.80;102224.34;4950203;29;20084;-67
2022/06/12 07:11:32;;;;;;;14.23;5.10;;;;;;;16.76;77.99;102215.03;4950906;29;20471;-67
2022/06/12 07:13:58;;;;;;;12.30;4.45;;;;;;;16.91;76.91;102221.09;4950470;29;20027;-67
2022/06/12 07:16:25;;;;;;;19.35;5.65;;;;;;;17.00;77.49;102219.88;4950539;29;20458;-67
2022/06/12 07:18:50;;;;;;;16.25;5.63;;;;;;;17.05;77.38;102217.38;4950757;29;20094;-67
2022/06/12 07:21:16;;;;;;;18.42;5.80;;;;;;;17.15;76.42;102225.06;4950799;29;20043;-68
2022/06/12 07:23:42;;;;;;;17.70;5.32;;;;;;;17.28;76.84;102225.06;4950716;29;20068;-67
2022/06/12 07:26:25;;;;;;;10.07;4.53;;;;;;;17.38;76.01;102218.44;4950976;29;20094;-67
2022/06/12 07:28:51;;;;;;;12.82;4.72;;;;;;;17.38;73.93;102221.94;4950610;29;20047;-67
2022/06/12 07:31:17;;;;;;;17.40;5.22;;;;;;;17.44;73.12;102222.97;4950760;29;20027;-67
2022/06/12 07:33:43;;;;;;;16.13;5.65;;;;;;;17.38;73.11;102223.81;4950713;29;20071;-68
2022/06/12 07:36:11;;;;;;;17.55;5.85;;;;;;;17.43;75.55;102224.03;4950721;29;20123;-69
2022/06/12 07:38:37;;;;;;;14.52;4.63;;;;;;;17.53;74.98;102227.13;4932226;29;20439;-68
2022/06/12 07:41:06;;;;;;;18.95;6.63;;;;;;;17.65;72.90;102230.00;4931907;29;20091;-70
2022/06/12 07:43:35;;;;;;;14.82;5.07;;;;;;;17.73;72.44;102236.00;4950671;29;20122;-70
2022/06/12 07:46:04;;;;;;;16.98;5.57;;;;;;;17.80;71.70;102229.81;4950553;29;20062;-70
2022/06/12 07:48:31;;;;;;;17.70;6.32;;;;;;;17.87;71.53;102234.16;4950687;29;20067;-70
2022/06/12 07:50:58;;;;;;;10.55;4.03;;;;;;;17.97;71.35;102239.09;4950263;29;20042;-70
2022/06/12 07:53:24;;;;;;;10.82;4.47;;;;;;;17.96;71.42;102229.34;4950593;29;20031;-70
2022/06/12 07:55:51;;;;;;;12.85;4.68;;;;;;;17.99;69.63;102236.22;4950449;29;20098;-70
2022/06/12 07:58:17;;;;;;;11.73;5.00;;;;;;;18.02;68.78;102235.78;4950336;29;20081;-70
2022/06/12 08:00:42;;;;;;;15.80;5.32;;;;;;;18.10;69.70;102227.44;4950294;29;20024;-69
2022/06/12 08:03:08;;;;;;;15.00;4.07;;;;;;;18.27;70.02;102225.94;4950510;29;20042;-70
2022/06/12 08:05:34;;;;;;;16.67;5.47;;;;;;;18.68;68.77;102224.69;4950512;29;20399;-70
2022/06/12 08:07:59;;;;;;;11.88;4.70;;;;;;;19.46;66.08;102235.13;4950381;29;20118;-70
2022/06/12 08:10:25;;;;;;;18.58;6.25;;;;;;;19.90;65.01;102225.16;4949840;29;20467;-74
2022/06/12 08:12:50;;;;;;;23.25;4.90;;;;;;;19.90;64.12;102224.34;4950462;29;20039;-69
2022/06/12 08:15:22;;;;;;;14.88;4.68;;;;;;;20.26;63.87;102220.78;4950161;29;20090;-68
2022/06/12 08:17:49;;;;;;;19.75;6.63;;;;;;;20.46;60.99;102219.69;4949909;28;20187;-68
2022/06/12 08:20:24;;;;;;;14.52;5.07;;;;;;;20.97;61.53;102221.88;4953536;29;20558;-68
2022/06/12 08:22:57;;;;;;;14.57;4.47;;;;;;;20.97;60.81;102227.31;4953827;29;20129;-69
2022/06/12 08:25:23;;;;;;;12.98;4.38;;;;;;;21.26;58.77;102221.22;4953826;29;20039;-70
2022/06/12 08:27:49;;;;;;;14.98;5.15;;;;;;;21.01;60.27;102227.66;4953896;29;20173;-70
2022/06/12 08:30:14;;;;;;;13.50;5.30;;;;;;;20.82;61.08;102228.81;4953747;29;20034;-70
2022/06/12 08:32:42;;;;;;;12.43;4.97;;;;;;;21.07;61.43;102226.75;4953771;29;20397;-70
2022/06/12 08:35:16;;;;;;;13.80;4.72;;;;;;;21.43;61.42;102228.47;4953518;29;20038;-70
2022/06/12 08:37:42;;;;;;;13.65;4.53;;;;;;;21.70;58.56;102227.19;4953736;29;20482;-69
2022/06/12 08:40:37;;;;;;;10.73;3.85;;;;;;;21.86;59.31;102227.25;4953700;29;20031;-69
2022/06/12 08:43:22;;;;;;;11.85;5.18;;;;;;;22.36;58.22;102220.41;4951845;29;20039;-69
2022/06/12 08:45:51;;;;;;;16.23;4.60;;;;;;;23.65;51.60;102217.97;4953430;29;20027;-70
2022/06/12 08:48:39;;;;;;;12.45;4.18;;;;;;;24.53;52.38;102216.09;4953518;29;20078;-69
2022/06/12 08:51:11;;;;;;;15.75;5.30;;;;;;;25.14;49.19;102216.63;4935864;29;20406;-69
2022/06/12 08:53:51;;;;;;;12.38;4.68;;;;;;;24.75;49.54;102213.28;4953326;29;20046;-72
2022/06/12 08:56:20;;;;;;;16.63;4.00;;;;;;;24.51;48.89;102214.72;4936747;29;20369;-71
2022/06/12 08:58:56;;;;;;;15.52;4.82;;;;;;;24.26;49.89;102202.41;4934863;29;20038;-71
2022/06/12 09:01:22;;;;;;;7.97;3.50;;;;;;;23.79;50.69;102211.13;4934926;29;20028;-71
2022/06/12 09:03:51;;;;;;;12.40;4.03;;;;;;;23.65;48.97;102207.88;4934966;29;20031;-71
2022/06/12 09:06:26;;;;;;;13.82;3.97;;;;;;;23.35;51.49;102200.13;4934861;29;20031;-71
2022/06/12 09:09:01;;;;;;;14.32;4.35;;;;;;;22.79;50.98;102212.75;4934806;29;20042;-70
2022/06/12 09:11:45;;;;;;;11.93;4.82;;;;;;;22.33;54.44;102207.31;4934607;29;20071;-71
2022/06/12 09:14:22;;;;;;;10.77;3.10;;;;;;;21.98;53.81;102199.22;4934389;29;20035;-71
2022/06/12 09:17:18;;;;;;;19.75;4.13;;;;;;;21.73;54.67;102202.25;4934512;29;20452;-71
2022/06/12 09:20:01;;;;;;;10.63;3.72;;;;;;;21.67;54.43;102198.59;4934037;29;20495;-70
2022/06/12 09:22:38;;;;;;;11.02;3.72;;;;;;;21.58;54.42;102203.56;4934388;29;20050;-71
2022/06/12 09:25:22;;;;;;;12.88;4.30;;;;;;;21.76;57.83;102193.63;4934562;29;20050;-71
2022/06/12 09:28:25;;;;;;;9.95;3.42;;;;;;;21.88;55.08;102203.41;4934266;29;20031;-70
2022/06/12 09:30:59;;;;;;;16.45;5.05;;;;;;;21.75;56.49;102203.66;4924329;29;20047;-70
2022/06/12 09:33:42;;;;;;;10.75;4.68;;;;;;;21.47;56.51;102201.69;4941627;29;20090;-71
2022/06/12 09:36:33;;;;;;;12.18;4.13;;;;;;;21.41;58.09;102199.91;4952503;29;20027;-70
2022/06/12 09:39:06;;;;;;;12.98;4.13;;;;;;;21.30;56.82;102196.13;4952581;29;20038;-70
2022/06/12 09:41:42;;;;;;;15.65;4.07;;;;;;;21.33;56.66;102192.09;4952450;29;20465;-70
2022/06/12 09:44:13;;;;;;;13.35;4.10;;;;;;;21.35;56.41;102196.22;4952382;29;20490;-74
2022/06/12 09:46:51;;;;;;;10.13;3.80;;;;;;;21.32;57.89;102191.25;4952214;29;20046;-70
2022/06/12 09:49:41;;;;;;;9.65;3.42;;;;;;;21.43;58.83;102200.47;4952231;29;20295;-76
2022/06/12 09:52:45;;;;;;;11.75;4.43;;;;;;;21.60;58.93;102189.75;4951980;29;20509;-71
2022/06/12 09:55:22;;;;;;;10.43;3.38;;;;;;;21.67;56.01;102191.28;4952005;29;20050;-70
2022/06/12 09:57:54;;;;;;;11.25;3.10;;;;;;;21.69;55.03;102190.19;4952114;29;20082;-70
2022/06/12 10:00:45;;;;;;;9.65;3.03;;;;;;;21.57;56.20;102196.47;4952119;29;20054;-70
2022/06/12 10:03:11;;;;;;;12.00;3.92;;;;;;;21.70;58.19;102189.16;4952186;29;20117;-70
2022/06/12 10:05:36;;;;;;;8.93;3.35;;;;;;;21.88;53.91;102189.00;4952011;29;20064;-70
2022/06/12 10:08:07;;;;;;;13.10;3.55;;;;;;;21.84;54.15;102182.38;4952059;29;20386;-70
2022/06/12 10:11:14;;;;;;;9.10;3.70;;;;;;;21.83;55.07;102186.19;4934615;29;20471;-71
2022/06/12 10:13:43;;;;;;;12.68;4.00;;;;;;;22.04;55.90;102184.72;4930955;29;20279;-70
2022/06/12 10:16:18;;;;;;;10.43;4.72;;;;;;;21.97;52.88;102181.28;4933425;29;20112;-70
2022/06/12 10:19:06;;;;;;;10.02;3.42;;;;;;;21.83;53.58;102181.56;4935796;29;20114;-70
2022/06/12 10:21:35;;;;;;;11.93;3.65;;;;;;;21.61;52.39;102175.09;4940048;29;20031;-71
2022/06/12 10:24:01;;;;;;;13.95;4.57;;;;;;;21.59;55.51;102179.97;4939782;29;20039;-68
2022/06/12 10:26:30;;;;;;;11.98;3.55;;;;;;;21.67;55.26;102185.03;4939519;29;20466;-69
2022/06/12 10:29:12;;;;;;;11.18;4.10;;;;;;;21.66;53.05;102178.75;4939700;29;20063;-70
2022/06/12 10:32:07;;;;;;;;;;;;;;;21.79;55.59;102177.66;4940533;29;20055;-71
2022/06/12 10:34:33;;;;;;;8.60;3.33;;;;;;;22.00;55.23;102178.09;4927287;29;19950;-70
2022/06/12 10:37:28;;;;;;;5.68;2.70;;;;;;;21.96;53.49;102174.22;4941101;29;20066;-70
2022/06/12 10:40:05;;;;;;;10.30;4.00;;;;;;;21.75;53.93;102173.78;4930476;29;20598;-68
2022/06/12 10:42:37;;;;;;;12.38;4.63;;;;;;;21.66;55.50;102176.03;4951295;28;20034;-68
2022/06/12 10:45:03;;;;;;;14.75;4.95;;;;;;;21.56;55.91;102172.28;4951430;29;20122;-68
2022/06/12 10:47:31;;;;;;;13.30;4.75;;;;;;;21.37;54.60;102172.38;4951458;29;20115;-68
2022/06/12 10:50:22;;;;;;;8.63;3.47;;;;;;;21.28;55.02;102168.38;4951280;29;20636;-68
2022/06/12 10:52:50;;;;;;;8.80;4.18;;;;;;;21.35;56.38;102173.66;4951533;29;20053;-66
2022/06/12 10:55:23;;;;;;;15.35;3.60;;;;;;;21.25;55.26;102168.84;4951263;29;20443;-65
2022/06/12 10:58:06;;;;;;;5.03;2.97;;;;;;;21.15;54.26;102165.91;4932753;29;20048;-66
2022/06/12 11:00:39;;;;;;;9.05;4.00;;;;;;;21.08;53.96;102171.41;4932628;29;20031;-65
2022/06/12 11:03:22;;;;;;;8.38;3.65;;;;;;;21.16;54.70;102164.81;4932830;29;20036;-66
2022/06/12 11:05:53;;;;;;;8.48;2.38;;;;;;;21.26;53.17;102162.34;4932835;29;20036;-66
2022/06/12 11:08:33;;;;;;;10.23;3.00;;;;;;;21.18;53.15;102162.72;4932889;29;20050;-66
2022/06/12 11:11:29;;;;;;;14.48;3.53;;;;;;;21.21;53.99;102159.53;4932779;29;20075;-67
2022/06/12 11:14:03;;;;;;;8.55;2.78;;;;;;;21.06;54.67;102161.88;4932682;29;20058;-66
2022/06/12 11:16:43;;;;;;;7.88;3.45;;;;;;;20.91;54.48;102162.34;4932545;29;20035;-66
2022/06/12 11:19:48;;;;;;;6.15;2.40;;;;;;;20.97;55.64;102156.78;4938153;29;20031;-67
2022/06/12 11:22:30;;;;;;;9.20;2.65;;;;;;;21.36;55.56;102159.88;4950805;29;20040;-66
2022/06/12 11:25:07;;;;;;;10.30;2.70;;;;;;;21.63;53.86;102149.34;4950932;29;20065;-65
2022/06/12 11:27:57;;;;;;;8.25;2.65;;;;;;;21.73;52.38;102153.38;4950872;29;20062;-67
2022/06/12 11:30:30;;;;;;;8.82;2.45;;;;;;;21.73;52.18;102139.78;4950801;29;20071;-65
2022/06/12 11:32:58;;;;;;;6.13;2.45;;;;;;;21.84;51.24;102145.19;4944756;29;20114;-66
2022/06/12 11:35:36;;;;;;;4.70;2.20;;;;;;;21.90;52.12;102146.09;4932278;29;20475;-66
2022/06/12 11:38:34;;;;;;;9.73;3.00;;;;;;;22.08;53.47;102151.34;4915378;29;20055;-66
2022/06/12 11:41:24;;;;;;;8.82;2.65;;;;;;;22.00;49.00;102143.59;4932380;29;20439;-66
2022/06/12 11:44:16;;;;;;;5.53;2.45;;;;;;;21.79;49.90;102152.41;4932372;29;20621;-66
2022/06/12 11:47:20;;;;;;;7.60;2.72;;;;;;;21.74;50.90;102142.25;4916810;29;20405;-66
2022/06/12 11:49:51;;;;;;;7.35;2.60;;;;;;;21.77;52.42;102132.78;4911520;29;20086;-66
2022/06/12 11:52:20;;;;;;;12.82;2.90;;;;;;;21.82;49.09;102133.75;4932289;29;20032;-66
2022/06/12 11:55:16;;;;;;;7.85;2.67;;;;;;;21.67;51.27;102133.44;4939956;29;20403;-66
2022/06/12 11:57:50;;;;;;;5.57;2.00;;;;;;;21.54;52.10;102130.97;4954967;29;20043;-66
2022/06/12 12:00:40;;;;;;;5.40;2.42;;;;;;;21.34;51.04;102128.59;4954764;29;20110;-66